sensor_id;sensor_type;location;lat;lon;timestamp;pressure;altitude;pressure_sealevel;temperature;humidity
32083;BME280;18597;48.328;7.932;2022-09-01T00:01:31;99613.84;;;14.90;100.00
32083;BME280;18597;48.328;7.932;2022-09-01T00:03:59;99613.94;;;15.06;100.00
32083;BME280;18597;48.328;7.932;2022-09-01T00:06:30;99623.03;;;15.05;100.00
32083;BME280;18597;48.328;7.932;2022-09-01T00:09:03;99619.44;;;14.96;100.00
32083;BME280;18597;48.328;7.932;2022-09-01T00:11:30;99618.56;;;14.96;100.00
32083;BME280;18597;48.328;7.932;2022-09-01T00:13:59;99614.06;;;14.96;100.00
32083;BME280;18597;48.328;7.932;2022-09-01T00:16:27;99621.38;;;14.86;100.00
32083;BME280;18597;48.328;7.932;2022-09-01T00:18:54;99625.41;;;14.82;100.00
32083;BME280;18597;48.328;7.932;2022-09-01T00:21:25;99621.03;;;14.81;100.00
32083;BME280;18597;48.328;7.932;2022-09-01T00:23:52;99615.16;;;14.86;100.00
32083;BME280;18597;48.328;7.932;2022-09-01T00:26:18;99611.97;;;14.82;100.00
32083;BME280;18597;48.328;7.932;2022-09-01T00:28:43;99613.09;;;14.80;100.00
32083;BME280;18597;48.328;7.932;2022-09-01T00:31:10;99604.91;;;14.81;100.00
32083;BME280;18597;48.328;7.932;2022-09-01T00:33:37;99611.59;;;14.77;100.00
32083;BME280;18597;48.328;7.932;2022-09-01T00:36:04;99613.75;;;14.74;100.00
32083;BME280;18597;48.328;7.932;2022-09-01T00:38:32;99608.47;;;14.64;100.00
32083;BME280;18597;48.328;7.932;2022-09-01T00:40:59;99614.78;;;14.55;100.00
32083;BME280;18597;48.328;7.932;2022-09-01T00:43:48;99613.00;;;14.63;100.00
32083;BME280;18597;48.328;7.932;2022-09-01T00:46:20;99608.94;;;14.59;100.00
32083;BME280;18597;48.328;7.932;2022-09-01T00:48:56;99607.25;;;14.58;100.00
32083;BME280;18597;48.328;7.932;2022-09-01T00:51:24;99608.56;;;14.54;100.00
32083;BME280;18597;48.328;7.932;2022-09-01T00:53:51;99602.13;;;14.73;100.00
32083;BME280;18597;48.328;7.932;2022-09-01T00:56:17;99604.69;;;14.75;100.00
32083;BME280;18597;48.328;7.932;2022-09-01T00:58:43;99603.59;;;14.93;100.00
32083;BME280;18597;48.328;7.932;2022-09-01T01:01:11;99598.75;;;14.71;100.00
32083;BME280;18597;48.328;7.932;2022-09-01T01:03:38;99600.31;;;14.74;100.00
32083;BME280;18597;48.328;7.932;2022-09-01T01:06:08;99602.56;;;14.60;100.00
32083;BME280;18597;48.328;7.932;2022-09-01T01:08:38;99600.16;;;14.75;100.00
32083;BME280;18597;48.328;7.932;2022-09-01T01:11:12;99600.78;;;14.69;100.00
32083;BME280;18597;48.328;7.932;2022-09-01T01:13:57;99596.97;;;14.54;100.00
32083;BME280;18597;48.328;7.932;2022-09-01T01:16:27;99592.59;;;14.53;100.00
32083;BME280;18597;48.328;7.932;2022-09-01T01:18:54;99593.44;;;14.53;100.00
32083;BME280;18597;48.328;7.932;2022-09-01T01:21:31;99592.25;;;14.74;100.00
32083;BME280;18597;48.328;7.932;2022-09-01T01:24:32;99586.44;;;14.60;100.00
32083;BME280;18597;48.328;7.932;2022-09-01T01:26:59;99599.59;;;14.46;100.00
32083;BME280;18597;48.328;7.932;2022-09-01T01:29:32;99588.28;;;14.42;100.00
32083;BME280;18597;48.328;7.932;2022-09-01T01:31:58;99598.13;;;14.33;100.00
32083;BME280;18597;48.328;7.932;2022-09-01T01:34:25;99601.19;;;14.38;100.00
32083;BME280;18597;48.328;7.932;2022-09-01T01:36:51;99606.56;;;14.38;100.00
32083;BME280;18597;48.328;7.932;2022-09-01T01:39:22;99607.03;;;14.34;100.00
32083;BME280;18597;48.328;7.932;2022-09-01T01:41:51;99601.88;;;14.40;100.00
32083;BME280;18597;48.328;7.932;2022-09-01T01:44:22;99605.34;;;14.33;100.00
32083;BME280;18597;48.328;7.932;2022-09-01T01:46:51;99602.28;;;14.28;100.00
32083;BME280;18597;48.328;7.932;2022-09-01T01:49:23;99603.88;;;14.21;100.00
32083;BME280;18597;48.328;7.932;2022-09-01T01:51:52;99603.59;;;14.24;100.00
32083;BME280;18597;48.328;7.932;2022-09-01T01:54:22;99603.88;;;14.21;100.00
32083;BME280;18597;48.328;7.932;2022-09-01T01:56:48;99604.28;;;14.26;100.00
32083;BME280;18597;48.328;7.932;2022-09-01T01:59:15;99603.66;;;14.32;100.00
32083;BME280;18597;48.328;7.932;2022-09-01T02:01:43;99601.59;;;14.26;100.00
32083;BME280;18597;48.328;7.932;2022-09-01T02:04:14;99603.59;;;14.24;100.00
32083;BME280;18597;48.328;7.932;2022-09-01T02:06:43;99601.91;;;14.23;100.00
32083;BME280;18597;48.328;7.932;2022-09-01T02:09:13;99606.22;;;14.15;100.00
32083;BME280;18597;48.328;7.932;2022-09-01T02:11:39;99603.81;;;14.12;100.00
32083;BME280;18597;48.328;7.932;2022-09-01T02:14:07;99600.78;;;14.07;100.00
32083;BME280;18597;48.328;7.932;2022-09-01T02:16:34;99603.47;;;14.07;100.00
32083;BME280;18597;48.328;7.932;2022-09-01T02:19:03;99607.75;;;14.18;100.00
32083;BME280;18597;48.328;7.932;2022-09-01T02:21:29;99602.22;;;14.02;100.00
32083;BME280;18597;48.328;7.932;2022-09-01T02:23:59;99602.53;;;13.99;100.00
32083;BME280;18597;48.328;7.932;2022-09-01T02:26:33;99606.75;;;14.01;100.00
32083;BME280;18597;48.328;7.932;2022-09-01T02:29:03;99606.13;;;13.89;100.00
32083;BME280;18597;48.328;7.932;2022-09-01T02:31:35;99604.84;;;13.94;100.00
32083;BME280;18597;48.328;7.932;2022-09-01T02:34:05;99602.75;;;13.87;100.00
32083;BME280;18597;48.328;7.932;2022-09-01T02:36:36;99603.31;;;13.91;100.00
32083;BME280;18597;48.328;7.932;2022-09-01T02:39:15;99603.09;;;13.84;100.00
32083;BME280;18597;48.328;7.932;2022-09-01T02:41:41;99604.00;;;13.93;100.00
32083;BME280;18597;48.328;7.932;2022-09-01T02:44:08;99606.53;;;13.95;100.00
32083;BME280;18597;48.328;7.932;2022-09-01T02:46:41;99608.59;;;14.01;100.00
32083;BME280;18597;48.328;7.932;2022-09-01T02:49:10;99607.91;;;13.99;100.00
32083;BME280;18597;48.328;7.932;2022-09-01T02:51:42;99603.75;;;13.86;100.00
32083;BME280;18597;48.328;7.932;2022-09-01T02:54:10;99603.91;;;13.85;100.00
32083;BME280;18597;48.328;7.932;2022-09-01T02:56:40;99603.69;;;13.78;100.00
32083;BME280;18597;48.328;7.932;2022-09-01T02:59:06;99602.28;;;13.74;100.00
32083;BME280;18597;48.328;7.932;2022-09-01T03:01:38;99599.31;;;13.77;100.00
32083;BME280;18597;48.328;7.932;2022-09-01T03:04:05;99609.50;;;13.74;100.00
32083;BME280;18597;48.328;7.932;2022-09-01T03:06:35;99612.78;;;13.68;100.00
32083;BME280;18597;48.328;7.932;2022-09-01T03:09:07;99610.09;;;13.68;100.00
32083;BME280;18597;48.328;7.932;2022-09-01T03:11:36;99608.56;;;13.65;100.00
32083;BME280;18597;48.328;7.932;2022-09-01T03:14:04;99607.88;;;13.63;100.00
32083;BME280;18597;48.328;7.932;2022-09-01T03:16:31;99612.41;;;13.63;100.00
32083;BME280;18597;48.328;7.932;2022-09-01T03:18:58;99606.47;;;13.59;100.00
32083;BME280;18597;48.328;7.932;2022-09-01T03:21:25;99605.13;;;13.55;100.00
32083;BME280;18597;48.328;7.932;2022-09-01T03:23:52;99600.44;;;13.57;100.00
32083;BME280;18597;48.328;7.932;2022-09-01T03:26:20;99603.78;;;13.59;100.00
32083;BME280;18597;48.328;7.932;2022-09-01T03:28:49;99605.72;;;13.49;100.00
32083;BME280;18597;48.328;7.932;2022-09-01T03:31:16;99607.72;;;13.47;100.00
32083;BME280;18597;48.328;7.932;2022-09-01T03:33:43;99605.13;;;13.55;100.00
32083;BME280;18597;48.328;7.932;2022-09-01T03:36:09;99602.34;;;13.47;100.00
32083;BME280;18597;48.328;7.932;2022-09-01T03:38:46;99600.25;;;13.41;100.00
32083;BME280;18597;48.328;7.932;2022-09-01T03:41:15;99603.38;;;13.36;100.00
32083;BME280;18597;48.328;7.932;2022-09-01T03:43:44;99603.63;;;13.43;100.00
32083;BME280;18597;48.328;7.932;2022-09-01T03:46:12;99605.63;;;13.41;100.00
32083;BME280;18597;48.328;7.932;2022-09-01T03:48:45;99614.91;;;13.46;100.00
32083;BME280;18597;48.328;7.932;2022-09-01T03:51:13;99599.56;;;13.39;100.00
32083;BME280;18597;48.328;7.932;2022-09-01T03:53:39;99601.09;;;13.41;100.00
32083;BME280;18597;48.328;7.932;2022-09-01T03:56:05;99603.78;;;13.41;100.00
32083;BME280;18597;48.328;7.932;2022-09-01T03:58:32;99598.81;;;13.46;100.00
32083;BME280;18597;48.328;7.932;2022-09-01T04:00:59;99604.19;;;13.64;100.00
32083;BME280;18597;48.328;7.932;2022-09-01T04:03:31;99601.66;;;13.63;100.00
32083;BME280;18597;48.328;7.932;2022-09-01T04:05:58;99595.91;;;13.57;100.00
32083;BME280;18597;48.328;7.932;2022-09-01T04:08:25;99596.41;;;13.43;100.00
32083;BME280;18597;48.328;7.932;2022-09-01T04:10:58;99599.00;;;13.35;100.00
32083;BME280;18597;48.328;7.932;2022-09-01T04:13:30;99594.44;;;13.45;100.00
32083;BME280;18597;48.328;7.932;2022-09-01T04:15:58;99594.03;;;13.40;100.00
32083;BME280;18597;48.328;7.932;2022-09-01T04:18:24;99591.34;;;13.40;100.00
32083;BME280;18597;48.328;7.932;2022-09-01T04:20:54;99594.03;;;13.40;100.00
32083;BME280;18597;48.328;7.932;2022-09-01T04:26:10;99601.91;;;13.24;100.00
32083;BME280;18597;48.328;7.932;2022-09-01T04:28:43;99593.63;;;13.35;100.00
32083;BME280;18597;48.328;7.932;2022-09-01T04:31:15;99598.47;;;13.31;100.00
32083;BME280;18597;48.328;7.932;2022-09-01T04:33:47;99606.06;;;13.36;100.00
32083;BME280;18597;48.328;7.932;2022-09-01T04:36:20;99603.84;;;13.31;100.00
32083;BME280;18597;48.328;7.932;2022-09-01T04:38:52;99597.22;;;13.26;100.00
32083;BME280;18597;48.328;7.932;2022-09-01T04:41:26;99601.34;;;13.20;100.00
32083;BME280;18597;48.328;7.932;2022-09-01T04:43:55;99599.06;;;13.25;100.00
32083;BME280;18597;48.328;7.932;2022-09-01T04:46:24;99602.53;;;13.36;100.00
32083;BME280;18597;48.328;7.932;2022-09-01T04:48:54;99593.38;;;13.28;100.00
32083;BME280;18597;48.328;7.932;2022-09-01T04:51:21;99593.69;;;13.25;100.00
32083;BME280;18597;48.328;7.932;2022-09-01T04:53:48;99592.00;;;13.24;100.00
32083;BME280;18597;48.328;7.932;2022-09-01T04:56:18;99601.00;;;13.33;100.00
32083;BME280;18597;48.328;7.932;2022-09-01T04:58:46;99602.50;;;13.45;100.00
32083;BME280;18597;48.328;7.932;2022-09-01T05:01:15;99601.63;;;13.45;100.00
32083;BME280;18597;48.328;7.932;2022-09-01T05:03:43;99603.56;;;13.52;100.00
32083;BME280;18597;48.328;7.932;2022-09-01T05:06:15;99607.25;;;13.51;100.00
32083;BME280;18597;48.328;7.932;2022-09-01T05:08:43;99604.16;;;13.92;100.00
32083;BME280;18597;48.328;7.932;2022-09-01T05:11:11;99607.44;;;13.85;100.00
32083;BME280;18597;48.328;7.932;2022-09-01T05:13:39;99607.22;;;13.79;100.00
32083;BME280;18597;48.328;7.932;2022-09-01T05:16:08;99608.13;;;14.05;100.00
32083;BME280;18597;48.328;7.932;2022-09-01T05:18:39;99610.13;;;14.03;100.00
32083;BME280;18597;48.328;7.932;2022-09-01T05:21:08;99605.06;;;14.18;100.00
32083;BME280;18597;48.328;7.932;2022-09-01T05:23:37;99608.19;;;14.31;100.00
32083;BME280;18597;48.328;7.932;2022-09-01T05:26:11;99598.72;;;14.45;100.00
32083;BME280;18597;48.328;7.932;2022-09-01T05:28:43;99596.03;;;14.45;100.00
32083;BME280;18597;48.328;7.932;2022-09-01T05:31:09;99600.03;;;14.59;100.00
32083;BME280;18597;48.328;7.932;2022-09-01T05:33:35;99591.69;;;14.70;100.00
32083;BME280;18597;48.328;7.932;2022-09-01T05:36:02;99583.88;;;14.85;100.00
32083;BME280;18597;48.328;7.932;2022-09-01T05:38:33;99589.84;;;14.96;100.00
32083;BME280;18597;48.328;7.932;2022-09-01T05:41:02;99594.69;;;15.27;100.00
32083;BME280;18597;48.328;7.932;2022-09-01T05:43:30;99599.16;;;15.52;100.00
32083;BME280;18597;48.328;7.932;2022-09-01T05:45:57;99601.19;;;15.59;100.00
32083;BME280;18597;48.328;7.932;2022-09-01T05:48:23;99603.78;;;15.76;100.00
32083;BME280;18597;48.328;7.932;2022-09-01T05:50:50;99602.78;;;15.94;100.00
32083;BME280;18597;48.328;7.932;2022-09-01T05:53:21;99598.78;;;16.14;100.00
32083;BME280;18597;48.328;7.932;2022-09-01T05:55:51;99597.94;;;16.30;100.00
32083;BME280;18597;48.328;7.932;2022-09-01T05:58:25;99610.91;;;16.51;100.00
32083;BME280;18597;48.328;7.932;2022-09-01T06:00:53;99610.41;;;16.80;100.00
32083;BME280;18597;48.328;7.932;2022-09-01T06:03:23;99614.69;;;17.13;100.00
32083;BME280;18597;48.328;7.932;2022-09-01T06:05:51;99614.03;;;17.90;97.03
32083;BME280;18597;48.328;7.932;2022-09-01T06:08:22;99600.53;;;20.41;79.23
32083;BME280;18597;48.328;7.932;2022-09-01T06:10:51;99614.13;;;22.93;62.39
32083;BME280;18597;48.328;7.932;2022-09-01T06:13:18;99611.13;;;23.86;57.41
32083;BME280;18597;48.328;7.932;2022-09-01T06:15:48;99602.25;;;24.85;52.12
32083;BME280;18597;48.328;7.932;2022-09-01T06:18:15;99614.69;;;27.05;47.20
32083;BME280;18597;48.328;7.932;2022-09-01T06:20:45;99600.63;;;29.56;41.33
32083;BME280;18597;48.328;7.932;2022-09-01T06:23:12;99597.88;;;30.32;37.99
32083;BME280;18597;48.328;7.932;2022-09-01T06:25:42;99606.56;;;28.42;39.90
32083;BME280;18597;48.328;7.932;2022-09-01T06:28:18;99610.09;;;29.66;38.04
32083;BME280;18597;48.328;7.932;2022-09-01T06:30:46;99604.16;;;29.35;39.05
32083;BME280;18597;48.328;7.932;2022-09-01T06:33:14;99606.69;;;30.61;35.88
32083;BME280;18597;48.328;7.932;2022-09-01T06:35:42;99601.50;;;32.27;32.72
32083;BME280;18597;48.328;7.932;2022-09-01T06:38:11;99600.91;;;32.15;32.65
32083;BME280;18597;48.328;7.932;2022-09-01T06:40:38;99594.06;;;33.89;31.44
32083;BME280;18597;48.328;7.932;2022-09-01T06:43:07;99597.13;;;35.53;27.86
32083;BME280;18597;48.328;7.932;2022-09-01T06:45:45;99592.06;;;34.79;28.02
32083;BME280;18597;48.328;7.932;2022-09-01T06:48:18;99585.56;;;34.20;28.91
32083;BME280;18597;48.328;7.932;2022-09-01T06:50:44;99589.00;;;35.57;27.89
32083;BME280;18597;48.328;7.932;2022-09-01T06:53:11;99583.31;;;35.91;27.98
32083;BME280;18597;48.328;7.932;2022-09-01T06:55:41;99598.03;;;37.13;26.00
32083;BME280;18597;48.328;7.932;2022-09-01T06:58:09;99599.72;;;34.92;27.63
32083;BME280;18597;48.328;7.932;2022-09-01T07:00:38;99602.66;;;30.42;33.93
32083;BME280;18597;48.328;7.932;2022-09-01T07:03:09;99586.56;;;32.79;30.83
32083;BME280;18597;48.328;7.932;2022-09-01T07:05:46;99584.94;;;29.84;35.54
32083;BME280;18597;48.328;7.932;2022-09-01T07:08:15;99596.19;;;32.00;32.39
32083;BME280;18597;48.328;7.932;2022-09-01T07:10:49;99600.59;;;30.27;33.22
32083;BME280;18597;48.328;7.932;2022-09-01T07:13:20;99595.94;;;29.57;35.75
32083;BME280;18597;48.328;7.932;2022-09-01T07:15:51;99595.53;;;31.20;33.53
32083;BME280;18597;48.328;7.932;2022-09-01T07:18:20;99602.56;;;33.38;30.57
32083;BME280;18597;48.328;7.932;2022-09-01T07:20:48;99599.66;;;31.70;31.68
32083;BME280;18597;48.328;7.932;2022-09-01T07:23:15;99603.09;;;31.35;32.63
32083;BME280;18597;48.328;7.932;2022-09-01T07:25:44;99606.63;;;31.26;33.35
32083;BME280;18597;48.328;7.932;2022-09-01T07:28:14;99600.72;;;33.03;30.93
32083;BME280;18597;48.328;7.932;2022-09-01T07:30:48;99599.56;;;32.28;30.81
32083;BME280;18597;48.328;7.932;2022-09-01T07:33:16;99599.41;;;29.96;35.02
32083;BME280;18597;48.328;7.932;2022-09-01T07:35:46;99609.66;;;27.37;39.81
32083;BME280;18597;48.328;7.932;2022-09-01T07:38:12;99617.75;;;24.91;43.73
32083;BME280;18597;48.328;7.932;2022-09-01T07:40:40;99598.72;;;27.14;40.38
32083;BME280;18597;48.328;7.932;2022-09-01T07:43:14;99598.78;;;28.39;37.01
32083;BME280;18597;48.328;7.932;2022-09-01T07:45:44;99597.34;;;28.20;37.62
32083;BME280;18597;48.328;7.932;2022-09-01T07:48:12;99607.03;;;30.38;34.13
32083;BME280;18597;48.328;7.932;2022-09-01T07:50:42;99613.41;;;29.68;35.00
32083;BME280;18597;48.328;7.932;2022-09-01T07:53:16;99599.34;;;30.72;33.93
32083;BME280;18597;48.328;7.932;2022-09-01T07:55:44;99608.06;;;31.96;31.43
32083;BME280;18597;48.328;7.932;2022-09-01T07:58:12;99603.84;;;33.66;28.42
32083;BME280;18597;48.328;7.932;2022-09-01T08:00:40;99602.88;;;34.02;28.02
32083;BME280;18597;48.328;7.932;2022-09-01T08:03:09;99604.22;;;33.29;29.27
32083;BME280;18597;48.328;7.932;2022-09-01T08:05:35;99599.59;;;33.04;29.44
32083;BME280;18597;48.328;7.932;2022-09-01T08:08:01;99599.91;;;34.32;28.92
32083;BME280;18597;48.328;7.932;2022-09-01T08:10:27;99612.00;;;35.63;26.58
32083;BME280;18597;48.328;7.932;2022-09-01T08:12:53;99608.06;;;34.87;27.05
32083;BME280;18597;48.328;7.932;2022-09-01T08:15:19;99597.06;;;32.16;30.32
32083;BME280;18597;48.328;7.932;2022-09-01T08:17:45;99598.47;;;32.49;29.68
32083;BME280;18597;48.328;7.932;2022-09-01T08:20:12;99589.94;;;31.58;31.46
32083;BME280;18597;48.328;7.932;2022-09-01T08:22:38;99598.97;;;32.11;30.54
32083;BME280;18597;48.328;7.932;2022-09-01T08:25:09;99603.72;;;33.07;30.01
32083;BME280;18597;48.328;7.932;2022-09-01T08:27:36;99611.41;;;31.98;30.20
32083;BME280;18597;48.328;7.932;2022-09-01T08:30:06;99604.84;;;33.11;29.30
32083;BME280;18597;48.328;7.932;2022-09-01T08:32:33;99603.47;;;32.98;29.76
32083;BME280;18597;48.328;7.932;2022-09-01T08:35:00;99602.97;;;33.76;28.26
32083;BME280;18597;48.328;7.932;2022-09-01T08:37:26;99606.16;;;32.07;30.40
32083;BME280;18597;48.328;7.932;2022-09-01T08:39:52;99616.03;;;29.19;34.26
32083;BME280;18597;48.328;7.932;2022-09-01T08:43:13;99613.75;;;24.94;43.26
32083;BME280;18597;48.328;7.932;2022-09-01T08:45:51;99611.63;;;24.08;45.39
32083;BME280;18597;48.328;7.932;2022-09-01T08:48:40;99613.22;;;23.26;47.30
32083;BME280;18597;48.328;7.932;2022-09-01T08:54:48;99610.56;;;21.66;54.21
32083;BME280;18597;48.328;7.932;2022-09-01T08:57:20;99616.03;;;21.31;56.71
32083;BME280;18597;48.328;7.932;2022-09-01T08:59:48;99599.88;;;21.57;56.01
32083;BME280;18597;48.328;7.932;2022-09-01T09:06:12;99620.31;;;22.01;55.65
32083;BME280;18597;48.328;7.932;2022-09-01T09:11:57;99622.75;;;21.83;56.60
32083;BME280;18597;48.328;7.932;2022-09-01T09:14:53;99614.81;;;21.81;56.69
32083;BME280;18597;48.328;7.932;2022-09-01T09:17:26;99615.09;;;22.00;55.36
32083;BME280;18597;48.328;7.932;2022-09-01T09:19:54;99616.09;;;21.99;55.56
32083;BME280;18597;48.328;7.932;2022-09-01T09:22:20;99611.59;;;21.65;56.30
32083;BME280;18597;48.328;7.932;2022-09-01T09:24:56;99607.00;;;21.65;55.77
32083;BME280;18597;48.328;7.932;2022-09-01T09:27:30;99603.06;;;21.74;57.41
32083;BME280;18597;48.328;7.932;2022-09-01T09:30:05;99609.84;;;21.92;55.76
32083;BME280;18597;48.328;7.932;2022-09-01T09:33:02;99599.66;;;21.59;56.35
32083;BME280;18597;48.328;7.932;2022-09-01T09:35:35;99601.63;;;21.78;56.07
32083;BME280;18597;48.328;7.932;2022-09-01T09:38:22;99604.38;;;21.85;55.92
32083;BME280;18597;48.328;7.932;2022-09-01T09:41:20;99594.31;;;21.85;57.12
32083;BME280;18597;48.328;7.932;2022-09-01T09:49:31;99596.78;;;21.74;55.61
32083;BME280;18597;48.328;7.932;2022-09-01T09:52:15;99593.06;;;21.88;54.97
32083;BME280;18597;48.328;7.932;2022-09-01T09:55:03;99593.94;;;21.95;54.68
32083;BME280;18597;48.328;7.932;2022-09-01T09:57:30;99598.97;;;22.05;55.28
32083;BME280;18597;48.328;7.932;2022-09-01T10:00:22;99588.97;;;22.19;53.77
32083;BME280;18597;48.328;7.932;2022-09-01T10:03:08;99587.50;;;22.36;54.43
32083;BME280;18597;48.328;7.932;2022-09-01T10:05:46;99589.41;;;22.49;53.09
32083;BME280;18597;48.328;7.932;2022-09-01T10:08:39;99593.41;;;22.39;53.18
32083;BME280;18597;48.328;7.932;2022-09-01T10:11:23;99585.25;;;22.53;54.31
32083;BME280;18597;48.328;7.932;2022-09-01T10:13:52;99582.91;;;22.56;53.59
32083;BME280;18597;48.328;7.932;2022-09-01T10:16:26;99579.16;;;22.70;51.73
32083;BME280;18597;48.328;7.932;2022-09-01T10:18:56;99580.19;;;22.76;51.25
32083;BME280;18597;48.328;7.932;2022-09-01T10:21:34;99550.66;;;22.93;51.95
32083;BME280;18597;48.328;7.932;2022-09-01T10:27:00;99548.25;;;23.23;51.17
32083;BME280;18597;48.328;7.932;2022-09-01T10:29:38;99551.56;;;23.32;50.41
32083;BME280;18597;48.328;7.932;2022-09-01T10:32:12;99553.53;;;23.05;51.16
32083;BME280;18597;48.328;7.932;2022-09-01T10:34:41;99558.81;;;23.00;52.26
32083;BME280;18597;48.328;7.932;2022-09-01T10:37:07;99553.25;;;23.26;50.87
32083;BME280;18597;48.328;7.932;2022-09-01T10:40:19;99555.09;;;23.45;50.03
32083;BME280;18597;48.328;7.932;2022-09-01T10:42:48;99544.78;;;23.47;50.27
32083;BME280;18597;48.328;7.932;2022-09-01T10:45:35;99545.56;;;23.68;49.61
32083;BME280;18597;48.328;7.932;2022-09-01T10:48:28;99539.09;;;23.56;50.08
32083;BME280;18597;48.328;7.932;2022-09-01T10:53:51;99538.22;;;24.00;48.11
32083;BME280;18597;48.328;7.932;2022-09-01T10:59:10;99537.16;;;23.69;48.72
32083;BME280;18597;48.328;7.932;2022-09-01T11:10:39;99541.22;;;24.48;47.17
32083;BME280;18597;48.328;7.932;2022-09-01T11:13:45;99527.56;;;24.73;47.11
32083;BME280;18597;48.328;7.932;2022-09-01T11:16:38;99528.84;;;24.89;45.29
32083;BME280;18597;48.328;7.932;2022-09-01T11:19:40;99527.09;;;24.76;45.79
32083;BME280;18597;48.328;7.932;2022-09-01T11:22:42;99522.41;;;24.83;44.59
32083;BME280;18597;48.328;7.932;2022-09-01T11:25:33;99520.38;;;25.15;44.36
32083;BME280;18597;48.328;7.932;2022-09-01T11:28:06;99513.72;;;25.11;44.46
32083;BME280;18597;48.328;7.932;2022-09-01T11:30:46;99522.03;;;24.98;44.02
32083;BME280;18597;48.328;7.932;2022-09-01T11:34:07;99519.22;;;25.23;43.46
32083;BME280;18597;48.328;7.932;2022-09-01T11:36:50;99505.47;;;24.93;43.16
32083;BME280;18597;48.328;7.932;2022-09-01T11:39:29;99502.56;;;24.70;44.20
32083;BME280;18597;48.328;7.932;2022-09-01T11:45:05;99505.78;;;24.85;44.52
32083;BME280;18597;48.328;7.932;2022-09-01T11:47:56;99512.13;;;24.60;43.77
32083;BME280;18597;48.328;7.932;2022-09-01T11:50:34;99502.75;;;24.75;45.17
32083;BME280;18597;48.328;7.932;2022-09-01T11:53:13;99507.44;;;24.86;44.82
32083;BME280;18597;48.328;7.932;2022-09-01T11:55:47;99502.88;;;24.61;44.75
32083;BME280;18597;48.328;7.932;2022-09-01T11:58:31;99494.94;;;24.97;44.41
32083;BME280;18597;48.328;7.932;2022-09-01T12:01:20;99490.47;;;25.21;41.94
32083;BME280;18597;48.328;7.932;2022-09-01T12:03:48;99497.72;;;25.45;42.76
32083;BME280;18597;48.328;7.932;2022-09-01T12:06:23;99484.03;;;25.45;43.34
32083;BME280;18597;48.328;7.932;2022-09-01T12:08:56;99485.91;;;25.63;42.34
32083;BME280;18597;48.328;7.932;2022-09-01T12:11:30;99489.22;;;25.35;42.25
32083;BME280;18597;48.328;7.932;2022-09-01T12:14:08;99488.16;;;25.36;43.05
32083;BME280;18597;48.328;7.932;2022-09-01T12:16:37;99490.16;;;25.59;42.91
32083;BME280;18597;48.328;7.932;2022-09-01T12:19:05;99482.88;;;25.53;42.74
32083;BME280;18597;48.328;7.932;2022-09-01T12:21:35;99497.13;;;25.43;42.97
32083;BME280;18597;48.328;7.932;2022-09-01T12:24:23;99482.09;;;25.15;43.04
32083;BME280;18597;48.328;7.932;2022-09-01T12:26:52;99484.53;;;25.24;43.05
32083;BME280;18597;48.328;7.932;2022-09-01T12:29:19;99487.06;;;25.25;44.09
32083;BME280;18597;48.328;7.932;2022-09-01T12:31:48;99482.69;;;25.36;43.22
32083;BME280;18597;48.328;7.932;2022-09-01T12:34:37;99477.88;;;25.50;42.94
32083;BME280;18597;48.328;7.932;2022-09-01T12:39:53;99473.16;;;25.87;42.82
32083;BME280;18597;48.328;7.932;2022-09-01T12:42:31;99473.41;;;25.67;41.90
32083;BME280;18597;48.328;7.932;2022-09-01T12:45:03;99474.22;;;25.86;41.53
32083;BME280;18597;48.328;7.932;2022-09-01T12:52:56;99464.16;;;26.92;39.77
32083;BME280;18597;48.328;7.932;2022-09-01T12:55:27;99457.09;;;26.96;39.28
32083;BME280;18597;48.328;7.932;2022-09-01T12:57:58;99456.47;;;27.17;39.48
32083;BME280;18597;48.328;7.932;2022-09-01T13:00:30;99460.88;;;27.47;39.28
32083;BME280;18597;48.328;7.932;2022-09-01T13:03:17;99460.78;;;27.13;38.91
32083;BME280;18597;48.328;7.932;2022-09-01T13:05:49;99455.81;;;27.27;38.90
32083;BME280;18597;48.328;7.932;2022-09-01T13:08:21;99448.44;;;27.56;38.61
32083;BME280;18597;48.328;7.932;2022-09-01T13:10:56;99457.34;;;27.34;38.24
32083;BME280;18597;48.328;7.932;2022-09-01T13:13:24;99453.38;;;27.02;39.20
32083;BME280;18597;48.328;7.932;2022-09-01T13:15:54;99456.91;;;26.15;40.53
32083;BME280;18597;48.328;7.932;2022-09-01T13:18:23;99463.28;;;25.97;41.14
32083;BME280;18597;48.328;7.932;2022-09-01T13:20:51;99453.59;;;25.71;41.44
32083;BME280;18597;48.328;7.932;2022-09-01T13:23:18;99451.22;;;25.75;41.52
32083;BME280;18597;48.328;7.932;2022-09-01T13:25:45;99450.63;;;25.73;40.89
32083;BME280;18597;48.328;7.932;2022-09-01T13:28:13;99448.13;;;25.71;41.51
32083;BME280;18597;48.328;7.932;2022-09-01T13:30:39;99444.13;;;25.86;41.22
32083;BME280;18597;48.328;7.932;2022-09-01T13:33:06;99446.63;;;25.57;41.22
32083;BME280;18597;48.328;7.932;2022-09-01T13:35:38;99442.22;;;25.56;41.57
32083;BME280;18597;48.328;7.932;2022-09-01T13:38:04;99438.19;;;25.59;41.92
32083;BME280;18597;48.328;7.932;2022-09-01T13:40:30;99431.97;;;25.82;41.13
32083;BME280;18597;48.328;7.932;2022-09-01T13:42:56;99431.97;;;25.82;41.31
32083;BME280;18597;48.328;7.932;2022-09-01T13:45:23;99428.41;;;25.81;41.93
32083;BME280;18597;48.328;7.932;2022-09-01T13:47:51;99437.47;;;25.93;42.11
32083;BME280;18597;48.328;7.932;2022-09-01T13:50:19;99426.06;;;25.66;41.22
32083;BME280;18597;48.328;7.932;2022-09-01T13:52:53;99434.16;;;25.31;42.17
32083;BME280;18597;48.328;7.932;2022-09-01T13:55:24;99427.72;;;25.26;41.37
32083;BME280;18597;48.328;7.932;2022-09-01T13:57:51;99423.28;;;25.13;41.59
32083;BME280;18597;48.328;7.932;2022-09-01T14:00:22;99422.94;;;25.21;41.43
32083;BME280;18597;48.328;7.932;2022-09-01T14:02:52;99407.00;;;25.48;41.07
32083;BME280;18597;48.328;7.932;2022-09-01T14:05:24;99416.38;;;25.82;40.58
32083;BME280;18597;48.328;7.932;2022-09-01T14:07:51;99408.56;;;26.09;40.82